createdAt,value
2022-09-28T00:01:17.170Z,99498.38
2022-09-28T00:03:45.754Z,99497.19
2022-09-28T00:06:19.822Z,99497.94
2022-09-28T00:08:50.652Z,99506.22
2022-09-28T00:11:19.685Z,99493.75
2022-09-28T00:13:50.752Z,99491.47
2022-09-28T00:16:20.493Z,99499.25
2022-09-28T00:18:48.476Z,99494.44
2022-09-28T00:21:18.822Z,99482.59
2022-09-28T00:23:46.427Z,99489.44
2022-09-28T00:26:15.566Z,99488.00
2022-09-28T00:28:43.292Z,99496.97
2022-09-28T00:31:11.054Z,99481.53
2022-09-28T00:33:38.771Z,99480.44
2022-09-28T00:36:06.737Z,99480.97
2022-09-28T00:38:35.014Z,99488.31
2022-09-28T00:41:02.756Z,99501.84
2022-09-28T00:43:32.628Z,99488.94
2022-09-28T00:46:04.030Z,99486.81
2022-09-28T00:48:34.192Z,99475.16
2022-09-28T00:51:06.549Z,99490.19
2022-09-28T00:53:36.936Z,99499.03
2022-09-28T00:56:07.314Z,99506.25
2022-09-28T00:58:41.113Z,99515.91
2022-09-28T01:01:08.903Z,99527.00
2022-09-28T01:03:38.611Z,99533.59
2022-09-28T01:06:07.904Z,99528.09
2022-09-28T01:08:37.307Z,99535.53
2022-09-28T01:11:05.250Z,99534.28
2022-09-28T01:13:33.665Z,99540.06
2022-09-28T01:16:12.134Z,99536.28
2022-09-28T01:18:49.700Z,99534.38
2022-09-28T01:21:20.164Z,99525.47
2022-09-28T01:24:06.120Z,99527.84
2022-09-28T01:27:05.466Z,99523.69
2022-09-28T01:29:46.215Z,99533.84
2022-09-28T01:32:32.463Z,99524.75
2022-09-28T01:35:05.696Z,99525.28
2022-09-28T01:37:41.632Z,99524.53
2022-09-28T01:40:12.384Z,99527.28
2022-09-28T01:42:44.903Z,99525.91
2022-09-28T01:45:18.382Z,99523.88
2022-09-28T01:47:47.786Z,99524.63
2022-09-28T01:50:18.468Z,99516.91
2022-09-28T01:52:52.374Z,99515.19
2022-09-28T01:55:28.197Z,99508.47
2022-09-28T01:58:02.926Z,99500.81
2022-09-28T02:00:31.282Z,99507.72
2022-09-28T02:03:05.354Z,99503.47
2022-09-28T02:05:35.608Z,99512.03
2022-09-28T02:08:09.048Z,99510.78
2022-09-28T02:10:43.361Z,99510.53
2022-09-28T02:13:19.983Z,99514.25
2022-09-28T02:15:52.472Z,99517.84
2022-09-28T02:18:20.408Z,99513.28
2022-09-28T02:20:56.529Z,99516.91
2022-09-28T02:23:28.526Z,99510.13
2022-09-28T02:26:02.189Z,99521.47
2022-09-28T02:28:31.334Z,99519.97
2022-09-28T02:30:58.939Z,99503.88
2022-09-28T02:33:31.832Z,99501.69
2022-09-28T02:36:00.845Z,99501.88
2022-09-28T02:38:28.558Z,99505.50
2022-09-28T02:41:03.887Z,99504.31
2022-09-28T02:43:45.162Z,99497.41
2022-09-28T02:46:21.926Z,99498.28
2022-09-28T02:49:19.887Z,99504.09
2022-09-28T02:52:02.053Z,99508.22
2022-09-28T02:54:47.599Z,99500.03
2022-09-28T02:57:31.871Z,99516.44
2022-09-28T03:00:05.734Z,99506.81
2022-09-28T03:02:40.140Z,99494.66
2022-09-28T03:05:15.547Z,99497.09
2022-09-28T03:07:52.248Z,99497.84
2022-09-28T03:10:28.374Z,99495.06
2022-09-28T03:12:57.334Z,99505.44
2022-09-28T03:15:28.486Z,99500.97
2022-09-28T03:17:56.920Z,99507.00
2022-09-28T03:20:25.176Z,99510.06
2022-09-28T03:23:19.851Z,99500.31
2022-09-28T03:25:40.772Z,99505.75
2022-09-28T03:28:08.333Z,99503.94
2022-09-28T03:30:41.060Z,99494.41
2022-09-28T03:33:08.625Z,99484.56
2022-09-28T03:35:36.351Z,99493.56
2022-09-28T03:38:04.240Z,99494.00
2022-09-28T03:40:32.149Z,99491.22
2022-09-28T03:43:00.692Z,99485.84
2022-09-28T03:45:28.530Z,99494.00
2022-09-28T03:47:57.511Z,99496.66
2022-09-28T03:50:25.870Z,99487.25
2022-09-28T03:52:53.998Z,99497.59
2022-09-28T03:55:21.702Z,99500.34
2022-09-28T03:57:54.082Z,99502.88
2022-09-28T04:00:22.113Z,99506.28
2022-09-28T04:02:50.405Z,99504.47
2022-09-28T04:05:19.580Z,99494.94
2022-09-28T04:07:47.158Z,99504.59
2022-09-28T04:10:15.100Z,99506.28
2022-09-28T04:12:42.800Z,99514.75
2022-09-28T04:15:10.854Z,99505.59
2022-09-28T04:17:40.194Z,99498.63
2022-09-28T04:20:08.919Z,99511.53
2022-09-28T04:22:37.976Z,99510.91
2022-09-28T04:25:06.515Z,99506.47
2022-09-28T04:27:35.704Z,99506.97
2022-09-28T04:30:03.962Z,99506.88
2022-09-28T04:32:31.771Z,99494.38
2022-09-28T04:34:59.464Z,99501.34
2022-09-28T04:37:27.192Z,99501.03
2022-09-28T04:39:56.740Z,99502.66
2022-09-28T04:42:24.525Z,99502.84
2022-09-28T04:44:53.666Z,99506.13
2022-09-28T04:47:21.221Z,99498.09
2022-09-28T04:49:49.137Z,99495.53
2022-09-28T04:52:18.482Z,99502.31
2022-09-28T04:54:46.281Z,99510.16
2022-09-28T04:57:15.731Z,99512.47
2022-09-28T04:59:43.281Z,99518.34
2022-09-28T05:02:11.422Z,99506.59
2022-09-28T05:04:39.384Z,99515.81
2022-09-28T05:07:07.205Z,99509.94
2022-09-28T05:09:38.433Z,99513.75
2022-09-28T05:12:06.690Z,99511.34
2022-09-28T05:14:36.024Z,99508.16
2022-09-28T05:17:03.871Z,99510.34
2022-09-28T05:19:31.839Z,99510.84
2022-09-28T05:21:59.472Z,99515.69
2022-09-28T05:24:27.676Z,99512.81
2022-09-28T05:26:55.286Z,99514.16
2022-09-28T05:29:23.454Z,99513.81
2022-09-28T05:31:52.687Z,99511.16
2022-09-28T05:34:20.351Z,99506.13
2022-09-28T05:36:48.077Z,99503.13
2022-09-28T05:39:15.681Z,99501.69
2022-09-28T05:41:43.476Z,99509.78
2022-09-28T05:44:12.184Z,99508.59
2022-09-28T05:46:39.757Z,99509.53
2022-09-28T05:49:09.218Z,99513.53
2022-09-28T05:51:36.986Z,99512.44
2022-09-28T05:54:06.120Z,99508.03
2022-09-28T05:56:34.257Z,99516.81
2022-09-28T05:59:01.996Z,99520.81
2022-09-28T06:01:30.569Z,99522.50
2022-09-28T06:03:58.716Z,99522.41
2022-09-28T06:06:27.665Z,99523.34
2022-09-28T06:08:55.276Z,99523.00
2022-09-28T06:11:23.189Z,99525.75
2022-09-28T06:13:54.312Z,99523.94
2022-09-28T06:16:22.082Z,99521.72
2022-09-28T06:18:50.699Z,99526.06
2022-09-28T06:21:18.256Z,99539.78
2022-09-28T06:23:49.316Z,99535.69
2022-09-28T06:26:17.378Z,99533.84
2022-09-28T06:28:45.023Z,99539.59
2022-09-28T06:31:12.974Z,99526.31
2022-09-28T06:33:40.837Z,99527.13
2022-09-28T06:36:08.865Z,99519.94
2022-09-28T06:38:36.982Z,99523.13
2022-09-28T06:41:06.461Z,99527.97
2022-09-28T06:43:34.581Z,99515.84
2022-09-28T06:46:02.702Z,99503.69
2022-09-28T06:48:31.042Z,99490.56
2022-09-28T06:50:58.626Z,99487.13
2022-09-28T06:53:26.751Z,99480.03
2022-09-28T06:55:55.363Z,99469.97
2022-09-28T06:58:26.362Z,99469.00
2022-09-28T07:00:56.656Z,99469.19
2022-09-28T07:03:24.368Z,99459.66
2022-09-28T07:05:53.406Z,99450.44
2022-09-28T07:08:22.756Z,99435.84
2022-09-28T07:10:51.242Z,99441.31
2022-09-28T07:13:44.396Z,99443.44
2022-09-28T07:16:08.211Z,99443.72
2022-09-28T07:18:37.733Z,99433.47
2022-09-28T07:21:05.632Z,99433.75
2022-09-28T07:23:39.153Z,99436.94
2022-09-28T07:26:10.004Z,99442.56
2022-09-28T07:28:37.943Z,99435.56
2022-09-28T07:31:07.137Z,99433.59
2022-09-28T07:33:34.784Z,99420.69
2022-09-28T07:36:03.624Z,99420.16
2022-09-28T07:38:31.271Z,99428.69
2022-09-28T07:40:58.935Z,99428.81
2022-09-28T07:43:27.381Z,99431.59
2022-09-28T07:45:54.999Z,99431.09
2022-09-28T07:48:25.476Z,99430.25
2022-09-28T07:50:55.276Z,99434.19
2022-09-28T07:53:25.047Z,99420.47
2022-09-28T07:55:53.526Z,99421.13
2022-09-28T07:58:21.456Z,99428.38
2022-09-28T08:00:50.124Z,99406.69
2022-09-28T08:03:19.425Z,99397.72
2022-09-28T08:05:48.618Z,99408.47
2022-09-28T08:08:17.152Z,99406.44
2022-09-28T08:10:47.208Z,99406.38
2022-09-28T08:13:15.486Z,99393.34
2022-09-28T08:15:46.167Z,99400.78
2022-09-28T08:18:13.964Z,99396.56
2022-09-28T08:20:42.216Z,99398.00
2022-09-28T08:23:11.405Z,99399.00
2022-09-28T08:25:38.996Z,99397.97
2022-09-28T08:28:07.153Z,99394.97
2022-09-28T08:30:34.945Z,99406.84
2022-09-28T08:33:02.962Z,99398.69
2022-09-28T08:35:30.722Z,99399.19
2022-09-28T08:37:58.339Z,99395.53
2022-09-28T08:40:27.399Z,99405.53
2022-09-28T08:42:58.212Z,99401.13
2022-09-28T08:45:28.249Z,99397.47
2022-09-28T08:48:02.160Z,99400.31
2022-09-28T08:50:33.120Z,99396.09
2022-09-28T08:53:12.463Z,99399.16
2022-09-28T08:55:43.773Z,99406.59
2022-09-28T08:58:13.737Z,99404.09
2022-09-28T09:00:46.997Z,99403.72
2022-09-28T09:03:17.879Z,99411.91
2022-09-28T09:05:59.666Z,99411.53
2022-09-28T09:08:41.489Z,99409.03
2022-09-28T09:11:23.254Z,99407.28
2022-09-28T09:14:23.406Z,99405.72
2022-09-28T09:17:01.370Z,99410.41
2022-09-28T09:19:35.980Z,99418.38
2022-09-28T09:22:15.723Z,99421.56
2022-09-28T09:24:49.481Z,99423.91
2022-09-28T09:27:42.509Z,99422.16
2022-09-28T09:30:17.733Z,99431.09
2022-09-28T09:33:03.834Z,99432.66
2022-09-28T09:35:59.815Z,99429.22
2022-09-28T09:38:50.229Z,99418.19
2022-09-28T09:41:31.323Z,99424.63
2022-09-28T09:44:14.954Z,99427.00
2022-09-28T09:46:47.155Z,99424.22
2022-09-28T09:49:19.428Z,99419.91
2022-09-28T09:51:53.004Z,99421.63
2022-09-28T09:54:26.171Z,99416.00
2022-09-28T09:57:00.019Z,99425.06
2022-09-28T09:59:34.155Z,99432.94
2022-09-28T10:02:03.473Z,99436.63
2022-09-28T10:04:36.813Z,99436.88
2022-09-28T10:07:06.825Z,99444.41
2022-09-28T10:09:39.676Z,99428.44
2022-09-28T10:12:09.720Z,99444.56
2022-09-28T10:14:39.336Z,99442.06
2022-09-28T10:17:10.757Z,99450.22
2022-09-28T10:19:38.689Z,99451.94
2022-09-28T10:22:06.584Z,99451.53
2022-09-28T10:24:38.776Z,99451.03
2022-09-28T10:27:11.426Z,99447.47
2022-09-28T10:29:52.156Z,99451.84
2022-09-28T10:32:22.708Z,99442.94
2022-09-28T10:34:51.821Z,99449.13
2022-09-28T10:37:19.920Z,99447.97
2022-09-28T10:39:51.719Z,99450.75
2022-09-28T10:42:22.246Z,99449.81
2022-09-28T10:44:59.511Z,99455.97
2022-09-28T10:47:30.155Z,99460.63
2022-09-28T10:50:00.627Z,99461.28
2022-09-28T10:52:35.297Z,99468.38
2022-09-28T10:55:25.905Z,99463.94
2022-09-28T10:57:53.891Z,99472.50
2022-09-28T11:00:34.810Z,99473.75
2022-09-28T11:03:03.171Z,99470.69
2022-09-28T11:05:31.524Z,99472.63
2022-09-28T11:08:03.730Z,99472.63
2022-09-28T11:10:32.791Z,99480.59
2022-09-28T11:13:00.964Z,99467.56
2022-09-28T11:15:31.643Z,99473.00
2022-09-28T11:18:19.209Z,99474.53
2022-09-28T11:20:47.062Z,99482.41
2022-09-28T11:23:21.764Z,99468.63
2022-09-28T11:25:58.769Z,99480.88
2022-09-28T11:28:31.642Z,99475.09
2022-09-28T11:31:01.144Z,99484.31
2022-09-28T11:33:33.508Z,99497.22
2022-09-28T11:36:24.341Z,99492.16
2022-09-28T11:38:59.789Z,99491.09
2022-09-28T11:41:45.970Z,99497.13
2022-09-28T11:44:32.557Z,99492.53
2022-09-28T11:47:16.644Z,99488.34
2022-09-28T11:49:49.669Z,99493.56
2022-09-28T11:52:22.846Z,99506.50
2022-09-28T11:54:55.681Z,99502.34
2022-09-28T11:57:29.855Z,99501.50
2022-09-28T12:00:00.583Z,99491.97
2022-09-28T12:02:33.972Z,99500.94
2022-09-28T12:05:17.111Z,99507.41
2022-09-28T12:07:51.577Z,99505.19
2022-09-28T12:10:33.157Z,99503.78
2022-09-28T12:13:06.083Z,99508.53
2022-09-28T12:16:11.626Z,99493.22
2022-09-28T12:18:39.013Z,99492.56
2022-09-28T12:21:22.473Z,99493.69
2022-09-28T12:23:53.687Z,99497.78
2022-09-28T12:26:35.914Z,99498.34
2022-09-28T12:29:13.288Z,99489.09
2022-09-28T12:31:52.305Z,99498.63
2022-09-28T12:34:21.016Z,99502.84
2022-09-28T12:37:02.957Z,99504.63
2022-09-28T12:39:56.968Z,99510.81
2022-09-28T12:42:40.988Z,99508.41
2022-09-28T12:45:23.694Z,99505.59
2022-09-28T12:48:22.892Z,99511.06
2022-09-28T12:50:59.277Z,99516.09
2022-09-28T12:54:02.896Z,99514.69
2022-09-28T12:56:41.324Z,99507.22
2022-09-28T12:59:18.853Z,99507.66
2022-09-28T13:02:13.783Z,99509.31
2022-09-28T13:05:16.839Z,99508.75
2022-09-28T13:07:53.809Z,99520.56
2022-09-28T13:10:30.225Z,99516.91
2022-09-28T13:13:12.171Z,99513.09
2022-09-28T13:15:45.255Z,99517.59
2022-09-28T13:18:22.594Z,99515.19
2022-09-28T13:21:09.376Z,99516.06
2022-09-28T13:23:41.580Z,99525.88
2022-09-28T13:26:18.570Z,99528.97
2022-09-28T13:28:49.005Z,99526.81
2022-09-28T13:31:21.873Z,99529.66
2022-09-28T13:33:51.311Z,99518.81
2022-09-28T13:36:39.140Z,99531.03
2022-09-28T13:39:39.784Z,99532.84
2022-09-28T13:42:09.915Z,99544.53
2022-09-28T13:45:11.244Z,99551.72
2022-09-28T13:48:03.543Z,99550.44
2022-09-28T13:50:43.766Z,99558.88
2022-09-28T13:53:20.541Z,99567.56
2022-09-28T13:55:56.736Z,99567.19
2022-09-28T13:58:30.615Z,99566.19
2022-09-28T14:01:03.597Z,99567.19
2022-09-28T14:03:43.998Z,99570.81
2022-09-28T14:06:24.106Z,99574.81
2022-09-28T14:09:23.410Z,99580.81
2022-09-28T14:11:59.643Z,99577.03
2022-09-28T14:14:43.865Z,99583.19
2022-09-28T14:17:53.115Z,99587.13
2022-09-28T14:20:25.057Z,99584.88
2022-09-28T14:23:28.168Z,99583.47
2022-09-28T14:26:17.618Z,99593.31
2022-09-28T14:28:58.984Z,99593.50
2022-09-28T14:31:29.483Z,99599.94
2022-09-28T14:33:59.448Z,99609.38
2022-09-28T14:36:34.558Z,99614.84
2022-09-28T14:39:02.541Z,99617.78
2022-09-28T14:41:33.570Z,99616.25
2022-09-28T14:44:11.938Z,99615.69
2022-09-28T14:46:44.996Z,99623.44
2022-09-28T14:49:44.324Z,99628.75
2022-09-28T14:52:13.478Z,99630.00
2022-09-28T14:54:48.424Z,99635.91
2022-09-28T14:57:18.905Z,99636.91
2022-09-28T14:59:47.029Z,99639.16
2022-09-28T15:02:24.196Z,99647.56
2022-09-28T15:04:54.379Z,99646.44
2022-09-28T15:07:24.700Z,99646.88
2022-09-28T15:09:53.562Z,99651.63
2022-09-28T15:12:24.941Z,99654.84
2022-09-28T15:14:57.575Z,99655.97
2022-09-28T15:17:28.774Z,99667.19
2022-09-28T15:20:14.586Z,99658.19
2022-09-28T15:22:46.434Z,99662.41
2022-09-28T15:25:18.555Z,99669.25
2022-09-28T15:27:47.384Z,99671.84
2022-09-28T15:30:23.050Z,99679.63
2022-09-28T15:32:53.651Z,99686.84
2022-09-28T15:35:24.038Z,99683.13
2022-09-28T15:37:52.442Z,99691.19
2022-09-28T15:40:33.822Z,99696.13
2022-09-28T15:43:01.639Z,99701.06
2022-09-28T15:45:34.775Z,99702.06
2022-09-28T15:48:29.338Z,99710.09
2022-09-28T15:51:03.290Z,99708.81
2022-09-28T15:53:31.212Z,99717.06
2022-09-28T15:56:05.142Z,99705.72
2022-09-28T15:58:32.852Z,99726.91
2022-09-28T16:01:23.333Z,99722.78
2022-09-28T16:03:52.732Z,99730.75
2022-09-28T16:06:20.623Z,99740.63
2022-09-28T16:08:49.317Z,99735.81
2022-09-28T16:11:21.385Z,99740.66
2022-09-28T16:13:56.482Z,99738.34
2022-09-28T16:16:28.082Z,99754.53
2022-09-28T16:18:59.512Z,99756.34
2022-09-28T16:21:45.400Z,99761.25
2022-09-28T16:24:22.689Z,99770.50
2022-09-28T16:26:56.736Z,99771.19
2022-09-28T16:29:26.721Z,99774.69
2022-09-28T16:31:54.762Z,99777.31
2022-09-28T16:34:26.904Z,99786.09
2022-09-28T16:36:54.771Z,99786.28
2022-09-28T16:39:22.363Z,99791.00
2022-09-28T16:41:54.036Z,99801.94
2022-09-28T16:44:25.567Z,99809.41
2022-09-28T16:46:54.502Z,99800.91
2022-09-28T16:49:23.880Z,99800.28
2022-09-28T16:51:53.110Z,99811.44
2022-09-28T16:54:23.241Z,99806.72
2022-09-28T16:56:50.985Z,99811.59
2022-09-28T16:59:18.636Z,99820.31
2022-09-28T17:01:53.032Z,99824.03
2022-09-28T17:04:21.208Z,99829.03
2022-09-28T17:06:50.479Z,99817.69
2022-09-28T17:09:21.029Z,99837.38
2022-09-28T17:11:49.676Z,99840.47
2022-09-28T17:14:17.785Z,99847.28
2022-09-28T17:19:33.826Z,99853.09
2022-09-28T17:22:01.633Z,99851.94
2022-09-28T17:24:30.808Z,99855.88
2022-09-28T17:26:58.484Z,99868.06
2022-09-28T17:29:26.702Z,99872.84
2022-09-28T17:31:54.428Z,99874.84
2022-09-28T17:34:22.250Z,99876.09
2022-09-28T17:36:50.067Z,99882.88
2022-09-28T17:39:18.921Z,99879.19
2022-09-28T17:41:48.349Z,99889.91
2022-09-28T17:44:16.499Z,99888.06
2022-09-28T17:46:46.236Z,99888.16
2022-09-28T17:49:14.980Z,99881.47
2022-09-28T17:51:42.679Z,99897.34
2022-09-28T17:54:10.289Z,99893.50
2022-09-28T17:56:37.916Z,99909.16
2022-09-28T17:59:14.258Z,99900.06
2022-09-28T18:01:42.149Z,99905.34
2022-09-28T18:04:23.029Z,99907.13
2022-09-28T18:06:59.682Z,99909.16
2022-09-28T18:09:27.825Z,99907.75
2022-09-28T18:11:59.697Z,99904.44
2022-09-28T18:14:28.977Z,99897.94
2022-09-28T18:16:56.669Z,99894.84
2022-09-28T18:19:27.462Z,99907.00
2022-09-28T18:21:58.937Z,99916.66
2022-09-28T18:24:26.711Z,99906.38
2022-09-28T18:26:54.537Z,99918.94
2022-09-28T18:29:22.514Z,99920.00
2022-09-28T18:31:51.731Z,99908.59
2022-09-28T18:34:19.640Z,99908.22
2022-09-28T18:36:47.685Z,99904.16
2022-09-28T18:39:15.297Z,99916.31
2022-09-28T18:41:42.966Z,99905.91
2022-09-28T18:44:10.763Z,99926.34
2022-09-28T18:46:38.401Z,99933.22
2022-09-28T18:49:07.643Z,99923.00
2022-09-28T18:51:35.435Z,99932.72
2022-09-28T18:54:03.712Z,99923.72
2022-09-28T18:56:31.751Z,99937.06
2022-09-28T18:58:59.746Z,99939.78
2022-09-28T19:01:30.846Z,99941.31
2022-09-28T19:03:59.906Z,99935.25
2022-09-28T19:06:29.446Z,99943.94
2022-09-28T19:08:57.523Z,99958.84
2022-09-28T19:11:26.115Z,99947.88
2022-09-28T19:13:54.215Z,99952.75
2022-09-28T19:16:24.419Z,99962.00
2022-09-28T19:18:52.658Z,99956.56
2022-09-28T19:21:20.667Z,99966.75
2022-09-28T19:23:50.166Z,99952.47
2022-09-28T19:26:20.226Z,99956.50
2022-09-28T19:28:48.634Z,99962.56
2022-09-28T19:31:16.752Z,99980.50
2022-09-28T19:33:44.982Z,99967.00
2022-09-28T19:36:14.793Z,99970.75
2022-09-28T19:38:42.521Z,99973.84
2022-09-28T19:41:12.983Z,99975.44
2022-09-28T19:43:40.528Z,99981.84
2022-09-28T19:46:08.346Z,99990.34
2022-09-28T19:48:36.307Z,99983.09
2022-09-28T19:51:06.049Z,99980.91
2022-09-28T19:53:35.348Z,99983.22
2022-09-28T19:56:06.580Z,99990.22
2022-09-28T19:58:36.776Z,99990.44
2022-09-28T20:01:05.737Z,99982.38
2022-09-28T20:03:33.419Z,99974.16
2022-09-28T20:06:01.990Z,99975.25
2022-09-28T20:08:30.020Z,100001.81
2022-09-28T20:10:58.781Z,99988.44
2022-09-28T20:13:31.033Z,99986.25
2022-09-28T20:16:05.582Z,99989.91
2022-09-28T20:18:35.002Z,99998.16
2022-09-28T20:21:03.301Z,99994.91
2022-09-28T20:23:30.956Z,100001.56
2022-09-28T20:25:59.089Z,99990.47
2022-09-28T20:28:26.681Z,99990.41
2022-09-28T20:30:54.583Z,99994.31
2022-09-28T20:33:28.766Z,99995.91
2022-09-28T20:35:57.090Z,100004.78
2022-09-28T20:38:24.773Z,100009.97
2022-09-28T20:40:52.427Z,100007.59
2022-09-28T20:43:20.189Z,100005.81
2022-09-28T20:45:47.753Z,99996.38
2022-09-28T20:48:15.339Z,99995.22
2022-09-28T20:50:44.784Z,100023.06
2022-09-28T20:53:12.452Z,100030.03
2022-09-28T20:55:40.057Z,100022.03
2022-09-28T20:58:07.709Z,100008.59
2022-09-28T21:00:35.272Z,100006.91
2022-09-28T21:03:02.928Z,100014.13
2022-09-28T21:05:30.859Z,100003.66
2022-09-28T21:08:00.014Z,100016.06
2022-09-28T21:10:27.724Z,100007.84
2022-09-28T21:12:55.559Z,100008.09
2022-09-28T21:15:23.384Z,100016.78
2022-09-28T21:17:52.536Z,100024.53
2022-09-28T21:20:20.514Z,100021.19
2022-09-28T21:22:48.317Z,100012.66
2022-09-28T21:25:17.335Z,100011.19
2022-09-28T21:27:45.315Z,100023.69
2022-09-28T21:30:13.460Z,100038.34
2022-09-28T21:32:41.397Z,100024.81
2022-09-28T21:35:09.859Z,100030.72
2022-09-28T21:37:37.470Z,100026.84
2022-09-28T21:40:05.837Z,100028.00
2022-09-28T21:42:35.072Z,100031.00
2022-09-28T21:45:02.684Z,100040.69
2022-09-28T21:47:30.585Z,100037.19
2022-09-28T21:49:58.265Z,100036.28
2022-09-28T21:52:26.332Z,100033.00
2022-09-28T21:54:53.917Z,100033.25
2022-09-28T21:57:21.652Z,100038.94
2022-09-28T21:59:50.776Z,100038.41
2022-09-28T22:02:18.453Z,100043.53
2022-09-28T22:04:46.240Z,100050.34
2022-09-28T22:07:13.817Z,100042.44
2022-09-28T22:09:41.778Z,100037.63
2022-09-28T22:12:09.652Z,100039.56
2022-09-28T22:14:38.363Z,100043.53
2022-09-28T22:17:07.374Z,100042.06
2022-09-28T22:19:35.254Z,100049.56
2022-09-28T22:22:02.837Z,100056.38
2022-09-28T22:24:30.499Z,100056.25
2022-09-28T22:26:58.175Z,100059.13
2022-09-28T22:29:25.855Z,100055.84
2022-09-28T22:31:53.412Z,100061.38
2022-09-28T22:34:22.451Z,100054.31
2022-09-28T22:36:50.188Z,100061.44
2022-09-28T22:39:17.773Z,100057.78
2022-09-28T22:41:45.625Z,100069.63
2022-09-28T22:44:13.239Z,100067.66
2022-09-28T22:46:40.938Z,100068.50
2022-09-28T22:49:10.670Z,100073.75
2022-09-28T22:51:39.834Z,100069.25
2022-09-28T22:54:11.663Z,100084.75
2022-09-28T22:56:39.439Z,100079.31
2022-09-28T22:59:07.013Z,100076.44
2022-09-28T23:01:34.954Z,100082.28
2022-09-28T23:04:02.608Z,100065.91
2022-09-28T23:06:30.556Z,100091.50
2022-09-28T23:08:59.983Z,100095.81
2022-09-28T23:11:28.770Z,100098.06
2022-09-28T23:13:58.034Z,100093.50
2022-09-28T23:16:26.622Z,100090.16
2022-09-28T23:18:56.194Z,100090.31
2022-09-28T23:21:25.347Z,100082.97
2022-09-28T23:23:55.387Z,100081.19
2022-09-28T23:26:27.264Z,100088.00
2022-09-28T23:28:54.854Z,100087.16
2022-09-28T23:31:24.490Z,100083.81
2022-09-28T23:33:52.485Z,100084.59
2022-09-28T23:36:20.857Z,100080.09
2022-09-28T23:38:48.616Z,100080.88
2022-09-28T23:41:16.147Z,100077.72
2022-09-28T23:43:45.991Z,100072.50
2022-09-28T23:46:17.280Z,100068.31
2022-09-28T23:48:48.413Z,100063.47
2022-09-28T23:51:17.283Z,100069.25
2022-09-28T23:53:45.079Z,100077.09
2022-09-28T23:56:13.128Z,100070.19
2022-09-28T23:58:41.102Z,100078.78
